createdAt,value
2022-10-26T00:01:14.281Z,7.47
2022-10-26T00:03:43.143Z,8.50
2022-10-26T00:06:13.399Z,6.78
2022-10-26T00:08:41.372Z,7.35
2022-10-26T00:11:08.913Z,7.28
2022-10-26T00:13:37.235Z,6.22
2022-10-26T00:16:16.947Z,7.10
2022-10-26T00:18:48.501Z,7.40
2022-10-26T00:21:16.350Z,6.55
2022-10-26T00:23:45.216Z,7.32
2022-10-26T00:26:12.695Z,7.13
2022-10-26T00:28:40.474Z,7.55
2022-10-26T00:31:15.610Z,7.28
2022-10-26T00:33:42.916Z,16.85
2022-10-26T00:36:10.856Z,7.38
2022-10-26T00:38:38.327Z,6.78
2022-10-26T00:41:06.138Z,6.38
2022-10-26T00:43:35.658Z,7.10
2022-10-26T00:46:06.894Z,6.20
2022-10-26T00:48:41.368Z,7.00
2022-10-26T00:51:39.089Z,7.13
2022-10-26T00:54:11.957Z,6.60
2022-10-26T00:56:40.113Z,5.63
2022-10-26T00:59:10.498Z,6.13
2022-10-26T01:01:40.172Z,6.25
2022-10-26T01:04:07.623Z,5.78
2022-10-26T01:06:38.091Z,6.05
2022-10-26T01:09:05.737Z,5.80
2022-10-26T01:11:33.062Z,5.32
2022-10-26T01:14:05.038Z,5.55
2022-10-26T01:16:42.789Z,4.63
2022-10-26T01:19:28.551Z,5.57
2022-10-26T01:22:03.509Z,4.40
2022-10-26T01:25:01.856Z,5.07
2022-10-26T01:27:52.646Z,5.15
2022-10-26T01:30:25.315Z,5.15
2022-10-26T01:33:10.688Z,4.53
2022-10-26T01:36:25.970Z,4.60
2022-10-26T01:38:57.339Z,5.30
2022-10-26T01:41:38.204Z,4.93
2022-10-26T01:44:10.972Z,5.13
2022-10-26T01:46:44.122Z,4.95
2022-10-26T01:49:13.177Z,4.78
2022-10-26T01:51:44.205Z,4.95
2022-10-26T01:54:11.616Z,4.70
2022-10-26T01:56:45.327Z,4.78
2022-10-26T01:59:40.434Z,5.40
2022-10-26T02:02:45.191Z,4.85
2022-10-26T02:05:19.744Z,5.07
2022-10-26T02:08:14.614Z,5.38
2022-10-26T02:10:47.704Z,5.30
2022-10-26T02:13:30.062Z,5.85
2022-10-26T02:16:07.367Z,6.03
2022-10-26T02:18:40.997Z,5.88
2022-10-26T02:21:20.787Z,6.25
2022-10-26T02:23:49.316Z,5.80
2022-10-26T02:26:19.597Z,6.25
2022-10-26T02:28:51.738Z,6.38
2022-10-26T02:31:19.870Z,6.70
2022-10-26T02:36:27.516Z,6.00
2022-10-26T02:38:56.066Z,6.32
2022-10-26T02:41:26.910Z,6.60
2022-10-26T02:44:00.654Z,6.05
2022-10-26T02:46:28.420Z,6.20
2022-10-26T02:48:56.164Z,6.13
2022-10-26T02:51:44.779Z,6.55
2022-10-26T02:54:26.930Z,6.28
2022-10-26T02:57:16.222Z,5.90
2022-10-26T02:59:47.622Z,6.03
2022-10-26T03:02:19.446Z,5.97
2022-10-26T03:04:49.340Z,5.85
2022-10-26T03:07:24.334Z,6.75
2022-10-26T03:09:53.012Z,6.00
2022-10-26T03:12:20.639Z,5.70
2022-10-26T03:14:48.647Z,6.15
2022-10-26T03:17:16.765Z,6.30
2022-10-26T03:19:44.906Z,8.00
2022-10-26T03:22:12.377Z,5.85
2022-10-26T03:24:40.521Z,6.38
2022-10-26T03:27:07.889Z,6.20
2022-10-26T03:29:35.133Z,5.75
2022-10-26T03:32:02.316Z,6.43
2022-10-26T03:34:30.157Z,5.93
2022-10-26T03:36:57.410Z,6.30
2022-10-26T03:39:24.629Z,6.63
2022-10-26T03:44:19.141Z,5.85
2022-10-26T03:46:46.410Z,6.30
2022-10-26T03:49:13.601Z,6.93
2022-10-26T03:51:41.618Z,6.22
2022-10-26T03:54:09.118Z,7.00
2022-10-26T03:56:36.570Z,7.05
2022-10-26T03:59:04.211Z,7.00
2022-10-26T04:01:32.042Z,7.28
2022-10-26T04:04:01.487Z,8.27
2022-10-26T04:06:28.963Z,8.93
2022-10-26T04:09:02.443Z,9.23
2022-10-26T04:11:30.076Z,9.90
2022-10-26T04:13:59.808Z,11.05
2022-10-26T04:16:31.047Z,11.68
2022-10-26T04:19:02.278Z,9.63
2022-10-26T04:21:29.898Z,8.88
2022-10-26T04:23:57.103Z,7.13
2022-10-26T04:26:26.476Z,6.78
2022-10-26T04:28:53.873Z,5.95
2022-10-26T04:31:21.405Z,5.78
2022-10-26T04:33:48.686Z,6.40
2022-10-26T04:36:15.858Z,6.22
2022-10-26T04:38:44.309Z,5.35
2022-10-26T04:41:11.771Z,5.57
2022-10-26T04:43:41.498Z,5.00
2022-10-26T04:46:11.251Z,4.97
2022-10-26T04:48:40.756Z,4.03
2022-10-26T04:51:08.028Z,4.07
2022-10-26T04:53:35.899Z,3.97
2022-10-26T04:56:03.455Z,4.32
2022-10-26T04:58:31.143Z,4.82
2022-10-26T05:00:58.570Z,3.80
2022-10-26T05:03:26.062Z,4.28
2022-10-26T05:05:53.733Z,4.18
2022-10-26T05:08:21.267Z,4.03
2022-10-26T05:10:50.148Z,5.28
2022-10-26T05:13:23.410Z,4.68
2022-10-26T05:15:53.990Z,5.60
2022-10-26T05:18:22.049Z,4.75
2022-10-26T05:20:54.336Z,4.13
2022-10-26T05:23:22.149Z,4.35
2022-10-26T05:25:49.966Z,4.05
2022-10-26T05:28:18.877Z,4.28
2022-10-26T05:30:49.474Z,4.25
2022-10-26T05:33:19.242Z,4.05
2022-10-26T05:35:47.656Z,4.85
2022-10-26T05:38:16.957Z,4.28
2022-10-26T05:40:52.360Z,5.95
2022-10-26T05:43:21.111Z,5.30
2022-10-26T05:45:50.246Z,4.40
2022-10-26T05:48:17.787Z,5.40
2022-10-26T05:50:45.390Z,4.95
2022-10-26T05:53:13.055Z,6.40
2022-10-26T05:55:41.053Z,4.40
2022-10-26T05:58:17.260Z,3.90
2022-10-26T06:01:11.606Z,3.60
2022-10-26T06:04:02.373Z,3.50
2022-10-26T06:06:40.446Z,3.10
2022-10-26T06:09:13.886Z,3.40
2022-10-26T06:11:41.597Z,5.90
2022-10-26T06:14:10.128Z,5.95
2022-10-26T06:17:19.681Z,3.88
2022-10-26T06:20:14.259Z,3.70
2022-10-26T06:22:51.056Z,4.60
2022-10-26T06:25:48.466Z,5.57
2022-10-26T06:28:51.089Z,5.28
2022-10-26T06:31:18.993Z,4.65
2022-10-26T06:33:46.718Z,5.28
2022-10-26T06:36:23.339Z,4.75
2022-10-26T06:39:06.123Z,5.63
2022-10-26T06:41:34.993Z,5.45
2022-10-26T06:44:03.503Z,5.18
2022-10-26T06:46:46.406Z,7.13
2022-10-26T06:49:26.544Z,5.03
2022-10-26T06:52:07.218Z,4.93
2022-10-26T06:54:43.986Z,4.75
2022-10-26T06:57:13.296Z,5.18
2022-10-26T06:59:51.000Z,5.45
2022-10-26T07:02:18.854Z,5.80
2022-10-26T07:04:46.692Z,6.10
2022-10-26T07:07:16.695Z,12.35
2022-10-26T07:09:44.431Z,6.47
2022-10-26T07:12:14.347Z,6.20
2022-10-26T07:14:42.185Z,9.48
2022-10-26T07:17:10.244Z,10.95
2022-10-26T07:19:37.578Z,12.57
2022-10-26T07:22:04.877Z,12.13
2022-10-26T07:24:33.217Z,11.68
2022-10-26T07:27:00.505Z,10.50
2022-10-26T07:29:28.011Z,10.85
2022-10-26T07:31:55.667Z,16.67
2022-10-26T07:34:28.611Z,15.30
2022-10-26T07:36:55.995Z,11.27
2022-10-26T07:39:26.702Z,12.82
2022-10-26T07:41:54.353Z,13.93
2022-10-26T07:44:22.365Z,12.57
2022-10-26T07:46:52.806Z,13.38
2022-10-26T07:49:20.754Z,14.27
2022-10-26T07:51:49.487Z,19.55
2022-10-26T07:54:16.717Z,19.98
2022-10-26T07:56:44.170Z,21.15
2022-10-26T07:59:14.335Z,22.20
2022-10-26T08:01:43.001Z,21.33
2022-10-26T08:04:12.301Z,21.30
2022-10-26T08:06:43.783Z,22.08
2022-10-26T08:09:17.009Z,21.10
2022-10-26T08:11:46.915Z,22.23
2022-10-26T08:14:16.476Z,22.75
2022-10-26T08:16:46.428Z,22.40
2022-10-26T08:19:14.913Z,31.58
2022-10-26T08:21:45.662Z,21.20
2022-10-26T08:27:01.965Z,25.50
2022-10-26T08:29:30.251Z,23.90
2022-10-26T08:32:01.575Z,23.17
2022-10-26T08:34:34.649Z,23.13
2022-10-26T08:37:04.828Z,24.80
2022-10-26T08:39:34.007Z,22.80
2022-10-26T08:42:16.591Z,24.48
2022-10-26T08:44:55.872Z,22.77
2022-10-26T08:47:32.847Z,22.92
2022-10-26T08:50:10.380Z,21.38
2022-10-26T08:52:50.806Z,21.77
2022-10-26T08:55:25.826Z,20.40
2022-10-26T08:57:54.285Z,65.60
2022-10-26T09:00:23.837Z,21.15
2022-10-26T09:02:56.201Z,21.52
2022-10-26T09:05:41.478Z,19.65
2022-10-26T09:08:26.767Z,20.60
2022-10-26T09:11:19.838Z,19.83
2022-10-26T09:13:51.249Z,21.00
2022-10-26T09:16:40.834Z,19.83
2022-10-26T09:19:23.815Z,19.92
2022-10-26T09:22:07.992Z,18.77
2022-10-26T09:24:40.462Z,19.83
2022-10-26T09:27:35.170Z,19.38
2022-10-26T09:33:20.844Z,19.27
2022-10-26T09:36:03.140Z,19.27
2022-10-26T09:38:34.167Z,17.95
2022-10-26T09:44:43.043Z,21.60
2022-10-26T09:47:34.930Z,19.42
2022-10-26T09:50:29.890Z,18.98
2022-10-26T09:52:58.668Z,18.80
2022-10-26T09:55:27.838Z,17.80
2022-10-26T09:58:01.777Z,17.58
2022-10-26T10:03:36.208Z,21.25
2022-10-26T10:09:15.624Z,21.10
2022-10-26T10:12:02.805Z,21.75
2022-10-26T10:14:37.477Z,24.08
2022-10-26T10:17:20.233Z,20.67
2022-10-26T10:19:51.973Z,17.52
2022-10-26T10:22:26.880Z,17.58
2022-10-26T10:25:42.946Z,16.70
2022-10-26T10:28:29.379Z,16.63
2022-10-26T10:31:22.976Z,14.85
2022-10-26T10:33:54.503Z,21.17
2022-10-26T10:40:05.730Z,13.20
2022-10-26T10:42:36.390Z,11.80
2022-10-26T10:48:26.574Z,12.05
2022-10-26T10:51:01.278Z,10.77
2022-10-26T10:53:35.397Z,10.48
2022-10-26T10:56:24.061Z,9.75
2022-10-26T10:59:11.041Z,8.50
2022-10-26T11:01:43.693Z,8.52
2022-10-26T11:04:17.559Z,8.80
2022-10-26T11:06:47.359Z,9.45
2022-10-26T11:09:22.428Z,9.98
2022-10-26T11:11:54.805Z,11.52
2022-10-26T11:14:31.796Z,12.13
2022-10-26T11:17:38.886Z,15.15
2022-10-26T11:20:19.640Z,16.65
2022-10-26T11:22:53.600Z,14.15
2022-10-26T11:25:35.246Z,14.55
2022-10-26T11:28:35.765Z,14.65
2022-10-26T11:31:08.633Z,15.40
2022-10-26T11:33:41.928Z,14.60
2022-10-26T11:36:25.144Z,17.20
2022-10-26T11:41:55.309Z,16.65
2022-10-26T11:44:30.136Z,18.52
2022-10-26T11:47:26.910Z,18.35
2022-10-26T11:50:12.206Z,18.20
2022-10-26T11:52:55.815Z,18.25
2022-10-26T11:55:33.082Z,17.77
2022-10-26T11:58:08.998Z,19.25
2022-10-26T12:00:49.881Z,18.10
2022-10-26T12:03:30.359Z,22.73
2022-10-26T12:06:01.065Z,20.42
2022-10-26T12:08:31.271Z,20.55
2022-10-26T12:11:26.330Z,20.13
2022-10-26T12:14:29.209Z,18.63
2022-10-26T12:20:08.413Z,28.40
2022-10-26T12:22:43.972Z,20.10
2022-10-26T12:25:28.652Z,18.90
2022-10-26T12:28:08.833Z,20.60
2022-10-26T12:30:45.853Z,18.00
2022-10-26T12:33:30.538Z,14.75
2022-10-26T12:39:00.631Z,12.50
2022-10-26T12:41:33.378Z,12.23
2022-10-26T12:44:07.510Z,13.50
2022-10-26T12:46:40.305Z,14.63
2022-10-26T12:50:03.950Z,15.65
2022-10-26T12:53:17.595Z,20.58
2022-10-26T12:55:52.420Z,20.67
2022-10-26T12:58:33.781Z,23.50
2022-10-26T13:01:01.745Z,22.25
2022-10-26T13:04:20.426Z,23.15
2022-10-26T13:07:42.273Z,20.88
2022-10-26T13:11:11.890Z,20.40
2022-10-26T13:13:45.389Z,21.83
2022-10-26T13:16:54.770Z,24.95
2022-10-26T13:19:53.509Z,20.88
2022-10-26T13:22:48.089Z,19.42
2022-10-26T13:25:37.941Z,19.25
2022-10-26T14:08:21.951Z,16.20
2022-10-26T14:11:02.453Z,16.33
2022-10-26T14:13:36.314Z,13.98
2022-10-26T14:16:12.867Z,13.52
2022-10-26T14:18:53.398Z,15.50
2022-10-26T14:21:52.351Z,14.18
2022-10-26T14:24:35.927Z,14.18
2022-10-26T14:27:41.838Z,13.15
2022-10-26T14:39:52.080Z,9.75
2022-10-26T14:42:41.262Z,10.02
2022-10-26T14:45:49.460Z,12.75
2022-10-26T14:48:23.039Z,11.75
2022-10-26T14:51:13.191Z,13.63
2022-10-26T14:53:58.441Z,9.63
2022-10-26T14:56:36.691Z,10.07
2022-10-26T14:59:12.339Z,9.38
2022-10-26T15:02:01.145Z,9.52
2022-10-26T15:04:39.097Z,9.20
2022-10-26T15:07:20.405Z,9.40
2022-10-26T15:09:49.577Z,9.38
2022-10-26T15:12:44.741Z,9.00
2022-10-26T15:17:55.502Z,8.30
2022-10-26T15:20:28.626Z,9.18
2022-10-26T15:23:03.741Z,9.43
2022-10-26T15:26:02.945Z,8.80
2022-10-26T15:32:03.315Z,8.35
2022-10-26T15:34:38.398Z,7.70
2022-10-26T15:37:14.328Z,9.15
2022-10-26T15:39:44.508Z,8.25
2022-10-26T15:42:16.392Z,8.93
2022-10-26T15:44:53.349Z,7.70
2022-10-26T15:47:35.062Z,7.70
2022-10-26T15:50:03.093Z,14.77
2022-10-26T15:52:46.685Z,8.88
2022-10-26T15:55:27.593Z,7.90
2022-10-26T15:57:57.599Z,8.55
2022-10-26T16:00:25.128Z,8.43
2022-10-26T16:03:04.941Z,8.20
2022-10-26T16:05:36.907Z,7.78
2022-10-26T16:08:17.750Z,8.15
2022-10-26T16:10:56.915Z,8.43
2022-10-26T16:13:28.616Z,8.75
2022-10-26T16:16:07.096Z,9.88
2022-10-26T16:19:06.156Z,11.88
2022-10-26T16:21:43.110Z,8.45
2022-10-26T16:24:34.324Z,9.60
2022-10-26T16:27:02.616Z,11.27
2022-10-26T16:32:22.936Z,9.10
2022-10-26T16:34:51.520Z,10.25
2022-10-26T16:37:22.229Z,12.15
2022-10-26T16:42:52.240Z,10.25
2022-10-26T16:45:23.276Z,9.25
2022-10-26T16:47:52.980Z,10.13
2022-10-26T16:50:26.339Z,10.85
2022-10-26T16:58:15.986Z,10.43
2022-10-26T17:00:43.995Z,10.13
2022-10-26T17:03:13.352Z,9.13
2022-10-26T17:05:41.082Z,8.95
2022-10-26T17:08:08.948Z,8.73
2022-10-26T17:10:39.064Z,9.00
2022-10-26T17:13:11.360Z,9.15
2022-10-26T17:15:38.774Z,8.98
2022-10-26T17:18:11.133Z,7.32
2022-10-26T17:20:53.468Z,9.13
2022-10-26T17:23:22.851Z,9.38
2022-10-26T17:25:54.290Z,7.40
2022-10-26T17:28:22.370Z,7.97
2022-10-26T17:30:50.874Z,7.75
2022-10-26T17:33:18.656Z,8.00
2022-10-26T17:35:46.217Z,6.82
2022-10-26T17:38:13.865Z,7.88
2022-10-26T17:40:50.364Z,7.13
2022-10-26T17:43:45.332Z,7.63
2022-10-26T17:46:35.112Z,8.23
2022-10-26T19:01:28.378Z,8.05
2022-10-26T19:07:07.450Z,8.40
2022-10-26T19:10:06.454Z,9.23
2022-10-26T19:12:35.451Z,9.75
2022-10-26T19:15:03.287Z,9.90
2022-10-26T19:17:47.590Z,10.35
2022-10-26T19:20:19.735Z,10.93
2022-10-26T19:22:57.546Z,10.02
2022-10-26T19:25:30.483Z,10.65
2022-10-26T19:28:06.984Z,10.75
2022-10-26T19:31:13.783Z,9.82
2022-10-26T19:34:00.856Z,9.88
2022-10-26T19:36:45.718Z,9.68
2022-10-26T19:39:20.142Z,8.75
2022-10-26T19:41:47.936Z,9.07
2022-10-26T19:44:19.693Z,8.73
2022-10-26T19:47:01.423Z,11.38
2022-10-26T19:49:39.177Z,9.15
2022-10-26T19:55:05.600Z,9.73
2022-10-26T19:57:35.440Z,8.80
2022-10-26T20:00:06.304Z,8.80
2022-10-26T20:02:49.817Z,8.95
2022-10-26T20:05:19.449Z,9.27
2022-10-26T20:07:50.561Z,9.30
2022-10-26T20:10:18.004Z,15.90
2022-10-26T20:12:52.559Z,15.77
2022-10-26T20:15:21.303Z,13.68
2022-10-26T20:17:50.886Z,14.05
2022-10-26T20:20:20.259Z,16.15
2022-10-26T20:22:59.868Z,15.82
2022-10-26T20:25:29.451Z,15.55
2022-10-26T20:28:01.786Z,13.68
2022-10-26T20:30:32.715Z,13.68
2022-10-26T20:33:03.830Z,12.70
2022-10-26T20:35:32.791Z,10.45
2022-10-26T20:38:01.210Z,9.75
2022-10-26T20:40:29.163Z,9.50
2022-10-26T20:42:58.375Z,9.18
2022-10-26T20:45:31.249Z,8.40
2022-10-26T20:48:47.054Z,7.45
2022-10-26T20:52:08.592Z,9.52
2022-10-26T20:58:23.750Z,6.93
2022-10-26T21:00:56.732Z,7.55
2022-10-26T21:03:24.014Z,6.47
2022-10-26T21:05:52.265Z,6.47
2022-10-26T21:08:20.194Z,6.20
2022-10-26T21:10:50.257Z,7.30
2022-10-26T21:13:19.061Z,7.53
2022-10-26T21:15:46.614Z,5.95
2022-10-26T21:18:13.980Z,6.20
2022-10-26T21:20:41.721Z,5.53
2022-10-26T21:23:09.122Z,6.40
2022-10-26T21:25:37.103Z,6.75
2022-10-26T21:28:06.797Z,5.57
2022-10-26T21:30:34.158Z,6.25
2022-10-26T21:33:02.111Z,7.15
2022-10-26T21:35:29.613Z,6.25
2022-10-26T21:37:57.219Z,6.05
2022-10-26T21:40:24.696Z,5.78
2022-10-26T21:42:53.749Z,5.43
2022-10-26T21:45:22.665Z,5.13
2022-10-26T21:47:53.725Z,4.78
2022-10-26T21:50:21.136Z,5.75
2022-10-26T21:52:53.523Z,5.15
2022-10-26T21:55:21.020Z,4.72
2022-10-26T21:57:49.383Z,5.30
2022-10-26T22:00:17.118Z,5.38
2022-10-26T22:02:44.564Z,6.90
2022-10-26T22:05:11.822Z,6.05
2022-10-26T22:07:39.165Z,5.30
2022-10-26T22:10:11.272Z,5.20
2022-10-26T22:12:39.034Z,6.65
2022-10-26T22:15:06.967Z,6.38
2022-10-26T22:17:43.740Z,6.38
2022-10-26T22:20:12.025Z,5.45
2022-10-26T22:22:39.362Z,5.60
2022-10-26T22:25:07.144Z,6.40
2022-10-26T22:27:34.637Z,5.72
2022-10-26T22:30:04.151Z,4.13
2022-10-26T22:32:32.259Z,4.72
2022-10-26T22:35:10.915Z,6.15
2022-10-26T22:37:45.012Z,6.20
2022-10-26T22:40:12.654Z,4.75
2022-10-26T22:42:39.919Z,5.35
2022-10-26T22:45:31.369Z,7.45
2022-10-26T22:48:01.741Z,6.47
2022-10-26T22:50:38.560Z,5.88
2022-10-26T22:53:06.048Z,5.28
2022-10-26T22:55:33.473Z,8.93
2022-10-26T22:58:00.746Z,8.05
2022-10-26T23:00:28.066Z,6.20
2022-10-26T23:02:55.895Z,6.30
2022-10-26T23:05:23.116Z,6.32
2022-10-26T23:07:50.488Z,6.10
2022-10-26T23:10:18.817Z,5.85
2022-10-26T23:12:46.121Z,6.40
2022-10-26T23:15:13.743Z,6.03
2022-10-26T23:17:41.134Z,5.90
2022-10-26T23:20:09.013Z,8.20
2022-10-26T23:22:37.202Z,7.05
2022-10-26T23:25:04.725Z,7.75
2022-10-26T23:27:32.021Z,6.15
2022-10-26T23:29:59.994Z,8.18
2022-10-26T23:32:27.367Z,7.47
2022-10-26T23:34:54.945Z,8.10
2022-10-26T23:37:22.400Z,8.70
2022-10-26T23:39:49.616Z,8.93
2022-10-26T23:42:19.292Z,8.10
2022-10-26T23:44:46.579Z,7.97
2022-10-26T23:47:14.005Z,8.27
2022-10-26T23:49:41.212Z,8.45
2022-10-26T23:52:08.638Z,7.70
2022-10-26T23:54:36.965Z,8.43
2022-10-26T23:57:04.257Z,8.65
2022-10-26T23:59:31.494Z,8.13
